KTCM/TCM METAR and TAF weather

Enter ICAO airport designator
Station Type Date Time Source
KTCM METAR 2022/01/18 07:14 UTC NOAA

KTCM 180714Z AUTO 14004KT 9SM FEW006 OVC017 07/07 A3000 RMK AO2 DZE14 CIG 013V017 OVC V BKN CIG 009 RWY34 SLP165 RVRNO $


Station Type Date Time Source
KTCM Decoded METAR 2022/01/18 07:14 UTC NOAA

Tacoma / McChord Air Force Base, WA, United States (KTCM) 47-09N 122-29W 87M
Jan 18, 2022 - 02:14 AM EST / 2022.01.18 0714 UTC
Wind: from the SE (140 degrees) at 5 MPH (4 KT):0
Visibility: 9 mile(s):0
Sky conditions: overcast
Temperature: 44 F (7 C)
Dew Point: 44 F (7 C)
Relative Humidity: 100%
Pressure (altimeter): 30 in. Hg (1015 hPa)
ob: KTCM 180714Z AUTO 14004KT 9SM FEW006 OVC017 07/07 A3000 RMK AO2 DZE14 CIG 013V017 OVC V BKN CIG 009 RWY34 SLP165 RVRNO
cycle: 7

Station Type Date Time Source
KTCM TAF 2022/01/18 05:03 UTC NOAA

TAF KTCM 180500Z 1805/1911 21009KT 9999 OVC020 620703 QNH3000INS
BECMG 1807/1808 20009KT 9999 OVC015 620703 QNH3000INS
TEMPO 1808/1814 8000 -RA OVC009
BECMG 1814/1815 19009KT 9999 OVC007 620603 QNH3004INS
BECMG 1819/1820 21009KT 9999 OVC020 620604 QNH3012INS
BECMG 1902/1903 16006KT 9999 OVC010 620504 QNH3018INS TX09/1822Z TN06/1815Z

Example: see airport list